sensor_id;sensor_type;location;lat;lon;timestamp;P1;durP1;ratioP1;P2;durP2;ratioP2
60819;SDS011;46641;48.904;9.126;2023-02-01T00:03:11;2.25;;;1.52;;
60819;SDS011;46641;48.904;9.126;2023-02-01T00:08:03;1.90;;;1.80;;
60819;SDS011;46641;48.904;9.126;2023-02-01T00:12:53;1.93;;;1.73;;
60819;SDS011;46641;48.904;9.126;2023-02-01T00:17:43;1.60;;;1.50;;
60819;SDS011;46641;48.904;9.126;2023-02-01T00:22:33;2.20;;;2.00;;
60819;SDS011;46641;48.904;9.126;2023-02-01T00:27:24;2.95;;;2.13;;
60819;SDS011;46641;48.904;9.126;2023-02-01T00:32:14;1.63;;;1.53;;
60819;SDS011;46641;48.904;9.126;2023-02-01T00:37:04;1.80;;;1.70;;
60819;SDS011;46641;48.904;9.126;2023-02-01T00:41:55;1.57;;;1.47;;
60819;SDS011;46641;48.904;9.126;2023-02-01T00:46:45;2.37;;;1.40;;
60819;SDS011;46641;48.904;9.126;2023-02-01T00:51:35;0.57;;;0.57;;
60819;SDS011;46641;48.904;9.126;2023-02-01T00:56:26;1.97;;;1.40;;
60819;SDS011;46641;48.904;9.126;2023-02-01T01:01:23;1.13;;;1.10;;
60819;SDS011;46641;48.904;9.126;2023-02-01T01:06:15;1.93;;;1.30;;
60819;SDS011;46641;48.904;9.126;2023-02-01T01:11:13;1.87;;;1.77;;
60819;SDS011;46641;48.904;9.126;2023-02-01T01:16:05;1.60;;;1.50;;
60819;SDS011;46641;48.904;9.126;2023-02-01T01:20:57;2.40;;;1.43;;
60819;SDS011;46641;48.904;9.126;2023-02-01T01:25:48;1.70;;;1.60;;
60819;SDS011;46641;48.904;9.126;2023-02-01T01:30:38;1.80;;;1.70;;
60819;SDS011;46641;48.904;9.126;2023-02-01T01:35:31;4.47;;;2.08;;
60819;SDS011;46641;48.904;9.126;2023-02-01T01:40:22;1.90;;;1.60;;
60819;SDS011;46641;48.904;9.126;2023-02-01T01:50:18;1.60;;;1.50;;
60819;SDS011;46641;48.904;9.126;2023-02-01T01:55:13;2.10;;;1.80;;
60819;SDS011;46641;48.904;9.126;2023-02-01T02:05:01;1.70;;;1.60;;
60819;SDS011;46641;48.904;9.126;2023-02-01T02:09:52;1.37;;;1.27;;
60819;SDS011;46641;48.904;9.126;2023-02-01T02:14:42;1.40;;;1.33;;
60819;SDS011;46641;48.904;9.126;2023-02-01T02:35:06;1.20;;;1.10;;
60819;SDS011;46641;48.904;9.126;2023-02-01T02:51:23;1.50;;;1.20;;
60819;SDS011;46641;48.904;9.126;2023-02-01T02:56:37;1.40;;;1.30;;
60819;SDS011;46641;48.904;9.126;2023-02-01T03:01:48;1.23;;;1.13;;
60819;SDS011;46641;48.904;9.126;2023-02-01T03:06:57;1.27;;;1.17;;
60819;SDS011;46641;48.904;9.126;2023-02-01T03:11:48;1.30;;;1.20;;
60819;SDS011;46641;48.904;9.126;2023-02-01T03:17:03;1.20;;;1.10;;
60819;SDS011;46641;48.904;9.126;2023-02-01T03:22:06;1.10;;;1.10;;
60819;SDS011;46641;48.904;9.126;2023-02-01T03:27:15;1.60;;;1.50;;
60819;SDS011;46641;48.904;9.126;2023-02-01T03:32:24;1.90;;;1.80;;
60819;SDS011;46641;48.904;9.126;2023-02-01T03:37:16;1.20;;;1.10;;
60819;SDS011;46641;48.904;9.126;2023-02-01T03:42:17;1.87;;;1.40;;
60819;SDS011;46641;48.904;9.126;2023-02-01T03:47:13;1.50;;;1.40;;
60819;SDS011;46641;48.904;9.126;2023-02-01T03:52:06;1.63;;;1.53;;
60819;SDS011;46641;48.904;9.126;2023-02-01T03:57:05;1.53;;;1.40;;
60819;SDS011;46641;48.904;9.126;2023-02-01T04:01:59;1.57;;;1.47;;
60819;SDS011;46641;48.904;9.126;2023-02-01T04:06:50;1.00;;;0.90;;
60819;SDS011;46641;48.904;9.126;2023-02-01T04:11:40;2.10;;;1.10;;
60819;SDS011;46641;48.904;9.126;2023-02-01T04:16:31;1.25;;;1.15;;
60819;SDS011;46641;48.904;9.126;2023-02-01T04:21:22;1.30;;;1.10;;
60819;SDS011;46641;48.904;9.126;2023-02-01T04:26:12;1.27;;;1.17;;
60819;SDS011;46641;48.904;9.126;2023-02-01T04:31:02;1.67;;;1.50;;
60819;SDS011;46641;48.904;9.126;2023-02-01T04:35:52;1.50;;;1.40;;
60819;SDS011;46641;48.904;9.126;2023-02-01T04:40:43;1.60;;;1.50;;
60819;SDS011;46641;48.904;9.126;2023-02-01T04:45:33;1.70;;;1.47;;
60819;SDS011;46641;48.904;9.126;2023-02-01T04:50:23;1.55;;;1.30;;
60819;SDS011;46641;48.904;9.126;2023-02-01T04:55:14;1.70;;;1.60;;
60819;SDS011;46641;48.904;9.126;2023-02-01T05:00:04;1.60;;;1.43;;
60819;SDS011;46641;48.904;9.126;2023-02-01T05:04:56;1.87;;;1.20;;
60819;SDS011;46641;48.904;9.126;2023-02-01T05:09:47;1.02;;;1.00;;
60819;SDS011;46641;48.904;9.126;2023-02-01T05:14:37;1.73;;;1.10;;
60819;SDS011;46641;48.904;9.126;2023-02-01T05:19:27;0.70;;;0.70;;
60819;SDS011;46641;48.904;9.126;2023-02-01T05:24:18;2.40;;;1.85;;
60819;SDS011;46641;48.904;9.126;2023-02-01T05:29:11;1.67;;;1.57;;
60819;SDS011;46641;48.904;9.126;2023-02-01T05:34:01;1.60;;;1.50;;
60819;SDS011;46641;48.904;9.126;2023-02-01T05:38:52;1.60;;;1.50;;
60819;SDS011;46641;48.904;9.126;2023-02-01T05:43:42;2.03;;;1.33;;
60819;SDS011;46641;48.904;9.126;2023-02-01T05:48:32;0.90;;;0.90;;
60819;SDS011;46641;48.904;9.126;2023-02-01T05:53:23;1.63;;;1.10;;
60819;SDS011;46641;48.904;9.126;2023-02-01T05:58:13;1.70;;;1.60;;
60819;SDS011;46641;48.904;9.126;2023-02-01T06:03:03;1.50;;;1.40;;
60819;SDS011;46641;48.904;9.126;2023-02-01T06:07:54;2.00;;;1.67;;
60819;SDS011;46641;48.904;9.126;2023-02-01T06:12:44;2.20;;;2.10;;
60819;SDS011;46641;48.904;9.126;2023-02-01T06:17:34;2.40;;;1.80;;
60819;SDS011;46641;48.904;9.126;2023-02-01T06:22:25;4.70;;;2.38;;
60819;SDS011;46641;48.904;9.126;2023-02-01T06:27:15;3.83;;;2.38;;
60819;SDS011;46641;48.904;9.126;2023-02-01T06:32:05;7.60;;;4.10;;
60819;SDS011;46641;48.904;9.126;2023-02-01T06:36:56;4.23;;;2.90;;
60819;SDS011;46641;48.904;9.126;2023-02-01T06:41:46;4.70;;;2.87;;
60819;SDS011;46641;48.904;9.126;2023-02-01T06:46:38;6.33;;;3.07;;
60819;SDS011;46641;48.904;9.126;2023-02-01T06:51:28;3.70;;;3.20;;
60819;SDS011;46641;48.904;9.126;2023-02-01T06:56:19;5.33;;;3.30;;
60819;SDS011;46641;48.904;9.126;2023-02-01T07:01:10;6.10;;;3.43;;
60819;SDS011;46641;48.904;9.126;2023-02-01T07:06:01;5.93;;;3.60;;
60819;SDS011;46641;48.904;9.126;2023-02-01T07:10:51;6.60;;;3.50;;
60819;SDS011;46641;48.904;9.126;2023-02-01T07:15:41;7.13;;;3.50;;
60819;SDS011;46641;48.904;9.126;2023-02-01T07:20:32;5.77;;;4.17;;
60819;SDS011;46641;48.904;9.126;2023-02-01T07:25:22;4.97;;;3.50;;
60819;SDS011;46641;48.904;9.126;2023-02-01T07:30:13;6.37;;;4.33;;
60819;SDS011;46641;48.904;9.126;2023-02-01T07:35:04;4.60;;;3.90;;
60819;SDS011;46641;48.904;9.126;2023-02-01T07:39:56;9.53;;;3.90;;
60819;SDS011;46641;48.904;9.126;2023-02-01T07:44:46;5.17;;;3.70;;
60819;SDS011;46641;48.904;9.126;2023-02-01T07:49:37;6.80;;;4.17;;
60819;SDS011;46641;48.904;9.126;2023-02-01T07:54:27;6.53;;;3.60;;
60819;SDS011;46641;48.904;9.126;2023-02-01T07:59:17;7.57;;;4.55;;
60819;SDS011;46641;48.904;9.126;2023-02-01T08:04:09;7.67;;;3.70;;
60819;SDS011;46641;48.904;9.126;2023-02-01T08:09:02;5.70;;;3.50;;
60819;SDS011;46641;48.904;9.126;2023-02-01T08:13:53;5.97;;;3.43;;
60819;SDS011;46641;48.904;9.126;2023-02-01T08:18:44;54.17;;;28.93;;
60819;SDS011;46641;48.904;9.126;2023-02-01T08:23:34;37.03;;;31.17;;
60819;SDS011;46641;48.904;9.126;2023-02-01T08:28:26;19.10;;;12.43;;
60819;SDS011;46641;48.904;9.126;2023-02-01T08:33:16;24.40;;;19.83;;
60819;SDS011;46641;48.904;9.126;2023-02-01T08:38:06;14.23;;;10.80;;
60819;SDS011;46641;48.904;9.126;2023-02-01T08:42:56;7.80;;;5.40;;
60819;SDS011;46641;48.904;9.126;2023-02-01T08:47:47;9.83;;;5.47;;
60819;SDS011;46641;48.904;9.126;2023-02-01T08:52:37;6.80;;;3.57;;
60819;SDS011;46641;48.904;9.126;2023-02-01T08:57:28;5.90;;;3.50;;
60819;SDS011;46641;48.904;9.126;2023-02-01T09:02:18;4.33;;;2.90;;
60819;SDS011;46641;48.904;9.126;2023-02-01T09:07:09;9.40;;;3.67;;
60819;SDS011;46641;48.904;9.126;2023-02-01T09:11:59;6.17;;;2.90;;
60819;SDS011;46641;48.904;9.126;2023-02-01T09:16:50;6.40;;;3.03;;
60819;SDS011;46641;48.904;9.126;2023-02-01T09:21:40;7.47;;;3.60;;
60819;SDS011;46641;48.904;9.126;2023-02-01T09:26:31;6.00;;;3.47;;
60819;SDS011;46641;48.904;9.126;2023-02-01T09:31:21;8.17;;;3.43;;
60819;SDS011;46641;48.904;9.126;2023-02-01T09:36:11;6.57;;;2.73;;
60819;SDS011;46641;48.904;9.126;2023-02-01T09:41:06;6.20;;;3.40;;
60819;SDS011;46641;48.904;9.126;2023-02-01T09:51:18;8.77;;;3.27;;
60819;SDS011;46641;48.904;9.126;2023-02-01T09:56:18;7.00;;;3.53;;
60819;SDS011;46641;48.904;9.126;2023-02-01T10:01:21;7.40;;;3.07;;
60819;SDS011;46641;48.904;9.126;2023-02-01T10:11:14;5.37;;;2.93;;
60819;SDS011;46641;48.904;9.126;2023-02-01T10:26:32;9.90;;;3.53;;
60819;SDS011;46641;48.904;9.126;2023-02-01T10:31:31;11.93;;;4.23;;
60819;SDS011;46641;48.904;9.126;2023-02-01T10:36:40;10.87;;;4.77;;
60819;SDS011;46641;48.904;9.126;2023-02-01T10:41:38;9.40;;;3.80;;
60819;SDS011;46641;48.904;9.126;2023-02-01T10:46:30;7.37;;;4.37;;
60819;SDS011;46641;48.904;9.126;2023-02-01T10:51:26;9.13;;;3.57;;
60819;SDS011;46641;48.904;9.126;2023-02-01T10:56:24;6.63;;;3.10;;
60819;SDS011;46641;48.904;9.126;2023-02-01T11:01:21;8.53;;;3.00;;
60819;SDS011;46641;48.904;9.126;2023-02-01T11:06:21;8.83;;;3.30;;
60819;SDS011;46641;48.904;9.126;2023-02-01T11:11:16;7.30;;;3.33;;
60819;SDS011;46641;48.904;9.126;2023-02-01T11:16:08;10.40;;;4.00;;
60819;SDS011;46641;48.904;9.126;2023-02-01T11:21:09;8.77;;;3.90;;
60819;SDS011;46641;48.904;9.126;2023-02-01T11:26:01;8.70;;;3.50;;
60819;SDS011;46641;48.904;9.126;2023-02-01T11:31:00;6.63;;;3.30;;
60819;SDS011;46641;48.904;9.126;2023-02-01T11:35:54;6.57;;;3.47;;
60819;SDS011;46641;48.904;9.126;2023-02-01T11:40:46;5.07;;;2.80;;
60819;SDS011;46641;48.904;9.126;2023-02-01T11:45:37;6.73;;;2.90;;
60819;SDS011;46641;48.904;9.126;2023-02-01T11:56:25;6.60;;;3.00;;
60819;SDS011;46641;48.904;9.126;2023-02-01T12:01:50;4.30;;;2.60;;
60819;SDS011;46641;48.904;9.126;2023-02-01T12:12:18;4.77;;;2.53;;
60819;SDS011;46641;48.904;9.126;2023-02-01T12:53:15;8.57;;;3.57;;
60819;SDS011;46641;48.904;9.126;2023-02-01T12:58:15;8.37;;;3.30;;
60819;SDS011;46641;48.904;9.126;2023-02-01T13:08:24;2.87;;;2.40;;
60819;SDS011;46641;48.904;9.126;2023-02-01T13:13:20;6.30;;;2.83;;
60819;SDS011;46641;48.904;9.126;2023-02-01T13:18:34;11.97;;;4.10;;
60819;SDS011;46641;48.904;9.126;2023-02-01T13:23:28;9.07;;;3.07;;
60819;SDS011;46641;48.904;9.126;2023-02-01T13:33:39;8.10;;;2.97;;
60819;SDS011;46641;48.904;9.126;2023-02-01T13:38:42;7.90;;;3.53;;
60819;SDS011;46641;48.904;9.126;2023-02-01T13:43:49;9.47;;;3.20;;
60819;SDS011;46641;48.904;9.126;2023-02-01T13:48:52;6.77;;;2.93;;
60819;SDS011;46641;48.904;9.126;2023-02-01T13:53:47;4.67;;;2.17;;
60819;SDS011;46641;48.904;9.126;2023-02-01T13:58:40;7.03;;;3.07;;
60819;SDS011;46641;48.904;9.126;2023-02-01T14:03:45;6.67;;;2.83;;
60819;SDS011;46641;48.904;9.126;2023-02-01T14:08:38;10.33;;;3.00;;
60819;SDS011;46641;48.904;9.126;2023-02-01T14:23:28;6.10;;;2.70;;
60819;SDS011;46641;48.904;9.126;2023-02-01T14:28:25;7.30;;;3.37;;
60819;SDS011;46641;48.904;9.126;2023-02-01T14:33:19;9.77;;;4.20;;
60819;SDS011;46641;48.904;9.126;2023-02-01T14:38:12;6.57;;;2.80;;
60819;SDS011;46641;48.904;9.126;2023-02-01T14:43:02;5.27;;;2.17;;
60819;SDS011;46641;48.904;9.126;2023-02-01T14:58:02;6.03;;;2.37;;
60819;SDS011;46641;48.904;9.126;2023-02-01T15:08:16;9.13;;;3.50;;
60819;SDS011;46641;48.904;9.126;2023-02-01T15:13:23;8.67;;;3.03;;
60819;SDS011;46641;48.904;9.126;2023-02-01T15:18:16;7.57;;;2.90;;
60819;SDS011;46641;48.904;9.126;2023-02-01T15:23:15;9.77;;;3.10;;
60819;SDS011;46641;48.904;9.126;2023-02-01T15:28:13;6.93;;;2.23;;
60819;SDS011;46641;48.904;9.126;2023-02-01T15:33:06;6.93;;;2.90;;
60819;SDS011;46641;48.904;9.126;2023-02-01T15:43:19;7.38;;;3.20;;
60819;SDS011;46641;48.904;9.126;2023-02-01T15:48:11;6.37;;;3.37;;
60819;SDS011;46641;48.904;9.126;2023-02-01T15:53:15;7.00;;;2.40;;
60819;SDS011;46641;48.904;9.126;2023-02-01T15:58:15;7.43;;;3.67;;
60819;SDS011;46641;48.904;9.126;2023-02-01T16:03:23;9.33;;;3.00;;
60819;SDS011;46641;48.904;9.126;2023-02-01T16:08:33;9.30;;;2.80;;
60819;SDS011;46641;48.904;9.126;2023-02-01T16:13:26;4.50;;;2.20;;
60819;SDS011;46641;48.904;9.126;2023-02-01T16:18:16;6.00;;;2.60;;
60819;SDS011;46641;48.904;9.126;2023-02-01T16:23:07;5.17;;;2.30;;
60819;SDS011;46641;48.904;9.126;2023-02-01T16:27:58;6.37;;;2.60;;
60819;SDS011;46641;48.904;9.126;2023-02-01T16:32:49;8.03;;;3.27;;
60819;SDS011;46641;48.904;9.126;2023-02-01T16:37:48;9.30;;;3.70;;
60819;SDS011;46641;48.904;9.126;2023-02-01T16:42:39;3.70;;;2.47;;
60819;SDS011;46641;48.904;9.126;2023-02-01T16:47:29;5.32;;;2.78;;
60819;SDS011;46641;48.904;9.126;2023-02-01T16:52:23;6.80;;;2.70;;
60819;SDS011;46641;48.904;9.126;2023-02-01T16:57:17;5.00;;;2.37;;
60819;SDS011;46641;48.904;9.126;2023-02-01T17:02:13;6.77;;;2.67;;
60819;SDS011;46641;48.904;9.126;2023-02-01T17:07:11;6.30;;;2.63;;
60819;SDS011;46641;48.904;9.126;2023-02-01T17:12:04;5.97;;;2.57;;
60819;SDS011;46641;48.904;9.126;2023-02-01T17:16:54;8.33;;;2.63;;
60819;SDS011;46641;48.904;9.126;2023-02-01T17:21:46;5.77;;;2.60;;
60819;SDS011;46641;48.904;9.126;2023-02-01T17:26:39;5.07;;;2.37;;
60819;SDS011;46641;48.904;9.126;2023-02-01T17:31:31;5.83;;;2.57;;
60819;SDS011;46641;48.904;9.126;2023-02-01T17:36:26;5.23;;;2.47;;
60819;SDS011;46641;48.904;9.126;2023-02-01T17:41:16;7.55;;;2.65;;
60819;SDS011;46641;48.904;9.126;2023-02-01T17:46:13;9.18;;;3.10;;
60819;SDS011;46641;48.904;9.126;2023-02-01T17:51:12;8.70;;;2.70;;
60819;SDS011;46641;48.904;9.126;2023-02-01T17:56:12;7.37;;;2.90;;
60819;SDS011;46641;48.904;9.126;2023-02-01T18:01:04;4.93;;;1.90;;
60819;SDS011;46641;48.904;9.126;2023-02-01T18:05:55;6.03;;;2.90;;
60819;SDS011;46641;48.904;9.126;2023-02-01T18:10:51;6.87;;;2.57;;
60819;SDS011;46641;48.904;9.126;2023-02-01T18:15:43;8.73;;;2.80;;
60819;SDS011;46641;48.904;9.126;2023-02-01T18:20:33;7.37;;;2.43;;
60819;SDS011;46641;48.904;9.126;2023-02-01T18:25:28;4.77;;;2.20;;
60819;SDS011;46641;48.904;9.126;2023-02-01T18:30:32;6.33;;;2.80;;
60819;SDS011;46641;48.904;9.126;2023-02-01T18:35:25;7.57;;;2.60;;
60819;SDS011;46641;48.904;9.126;2023-02-01T18:40:30;5.10;;;2.23;;
60819;SDS011;46641;48.904;9.126;2023-02-01T18:50:41;4.07;;;2.33;;
60819;SDS011;46641;48.904;9.126;2023-02-01T18:55:32;6.03;;;2.10;;
60819;SDS011;46641;48.904;9.126;2023-02-01T19:00:23;6.50;;;2.30;;
60819;SDS011;46641;48.904;9.126;2023-02-01T19:05:14;6.03;;;1.70;;
60819;SDS011;46641;48.904;9.126;2023-02-01T19:10:06;4.57;;;2.27;;
60819;SDS011;46641;48.904;9.126;2023-02-01T19:14:58;6.50;;;2.37;;
60819;SDS011;46641;48.904;9.126;2023-02-01T19:19:49;7.57;;;3.07;;
60819;SDS011;46641;48.904;9.126;2023-02-01T19:24:40;6.30;;;2.30;;
60819;SDS011;46641;48.904;9.126;2023-02-01T19:29:30;7.30;;;2.47;;
60819;SDS011;46641;48.904;9.126;2023-02-01T19:34:21;7.97;;;2.83;;
60819;SDS011;46641;48.904;9.126;2023-02-01T19:39:11;5.07;;;2.67;;
60819;SDS011;46641;48.904;9.126;2023-02-01T19:44:01;3.20;;;2.03;;
60819;SDS011;46641;48.904;9.126;2023-02-01T19:48:53;4.97;;;2.40;;
60819;SDS011;46641;48.904;9.126;2023-02-01T19:53:43;7.93;;;2.80;;
60819;SDS011;46641;48.904;9.126;2023-02-01T19:58:33;4.77;;;2.43;;
60819;SDS011;46641;48.904;9.126;2023-02-01T20:03:24;6.57;;;2.95;;
60819;SDS011;46641;48.904;9.126;2023-02-01T20:08:14;5.63;;;2.70;;
60819;SDS011;46641;48.904;9.126;2023-02-01T20:13:04;5.82;;;2.60;;
60819;SDS011;46641;48.904;9.126;2023-02-01T20:17:55;4.97;;;2.27;;
60819;SDS011;46641;48.904;9.126;2023-02-01T20:22:45;8.27;;;3.10;;
60819;SDS011;46641;48.904;9.126;2023-02-01T20:27:35;6.18;;;2.40;;
60819;SDS011;46641;48.904;9.126;2023-02-01T20:32:26;5.33;;;2.70;;
60819;SDS011;46641;48.904;9.126;2023-02-01T20:37:19;6.40;;;2.90;;
60819;SDS011;46641;48.904;9.126;2023-02-01T20:42:10;3.83;;;2.10;;
60819;SDS011;46641;48.904;9.126;2023-02-01T20:47:00;9.63;;;3.60;;
60819;SDS011;46641;48.904;9.126;2023-02-01T20:51:51;5.03;;;3.07;;
60819;SDS011;46641;48.904;9.126;2023-02-01T20:56:42;9.02;;;3.55;;
60819;SDS011;46641;48.904;9.126;2023-02-01T21:01:32;7.88;;;2.90;;
60819;SDS011;46641;48.904;9.126;2023-02-01T21:06:22;10.43;;;3.00;;
60819;SDS011;46641;48.904;9.126;2023-02-01T21:11:13;6.27;;;3.10;;
60819;SDS011;46641;48.904;9.126;2023-02-01T21:16:06;8.77;;;3.37;;
60819;SDS011;46641;48.904;9.126;2023-02-01T21:21:02;6.37;;;2.90;;
60819;SDS011;46641;48.904;9.126;2023-02-01T21:25:54;10.13;;;2.97;;
60819;SDS011;46641;48.904;9.126;2023-02-01T21:30:50;4.60;;;2.17;;
60819;SDS011;46641;48.904;9.126;2023-02-01T21:35:40;7.17;;;2.83;;
60819;SDS011;46641;48.904;9.126;2023-02-01T21:40:31;6.23;;;2.37;;
60819;SDS011;46641;48.904;9.126;2023-02-01T21:45:21;7.80;;;3.28;;
60819;SDS011;46641;48.904;9.126;2023-02-01T21:50:15;9.63;;;3.20;;
60819;SDS011;46641;48.904;9.126;2023-02-01T21:55:08;10.53;;;2.57;;
60819;SDS011;46641;48.904;9.126;2023-02-01T21:59:59;6.80;;;2.67;;
60819;SDS011;46641;48.904;9.126;2023-02-01T22:04:49;3.70;;;2.23;;
60819;SDS011;46641;48.904;9.126;2023-02-01T22:09:40;10.07;;;3.10;;
60819;SDS011;46641;48.904;9.126;2023-02-01T22:14:30;6.53;;;2.73;;
60819;SDS011;46641;48.904;9.126;2023-02-01T22:19:22;8.67;;;2.63;;
60819;SDS011;46641;48.904;9.126;2023-02-01T22:24:13;3.60;;;2.30;;
60819;SDS011;46641;48.904;9.126;2023-02-01T22:29:06;4.70;;;2.13;;
60819;SDS011;46641;48.904;9.126;2023-02-01T22:33:57;7.80;;;2.80;;
60819;SDS011;46641;48.904;9.126;2023-02-01T22:38:47;6.47;;;2.30;;
60819;SDS011;46641;48.904;9.126;2023-02-01T22:43:38;4.80;;;2.13;;
60819;SDS011;46641;48.904;9.126;2023-02-01T22:48:29;5.17;;;2.40;;
60819;SDS011;46641;48.904;9.126;2023-02-01T22:53:21;7.97;;;2.93;;
60819;SDS011;46641;48.904;9.126;2023-02-01T22:58:11;7.00;;;2.08;;
60819;SDS011;46641;48.904;9.126;2023-02-01T23:03:01;6.63;;;2.10;;
60819;SDS011;46641;48.904;9.126;2023-02-01T23:07:52;7.90;;;2.77;;
60819;SDS011;46641;48.904;9.126;2023-02-01T23:12:42;4.27;;;2.10;;
60819;SDS011;46641;48.904;9.126;2023-02-01T23:17:36;4.93;;;2.80;;
60819;SDS011;46641;48.904;9.126;2023-02-01T23:22:27;3.77;;;1.53;;
60819;SDS011;46641;48.904;9.126;2023-02-01T23:27:18;5.03;;;2.03;;
60819;SDS011;46641;48.904;9.126;2023-02-01T23:32:08;11.13;;;2.67;;
60819;SDS011;46641;48.904;9.126;2023-02-01T23:36:59;8.37;;;2.97;;
60819;SDS011;46641;48.904;9.126;2023-02-01T23:41:49;4.23;;;2.60;;
60819;SDS011;46641;48.904;9.126;2023-02-01T23:46:40;7.07;;;2.20;;
60819;SDS011;46641;48.904;9.126;2023-02-01T23:51:35;8.17;;;3.23;;
60819;SDS011;46641;48.904;9.126;2023-02-01T23:56:27;5.40;;;2.50;;
